createdAt,value
2019-04-07T00:00:09.336Z,71.47
2019-04-07T00:02:38.549Z,63.23
2019-04-07T00:05:12.356Z,61.95
2019-04-07T00:07:38.257Z,66.37
2019-04-07T00:10:09.847Z,68.00
2019-04-07T00:12:38.618Z,67.55
2019-04-07T00:15:07.406Z,69.87
2019-04-07T00:17:36.254Z,66.53
2019-04-07T00:20:05.487Z,66.67
2019-04-07T00:22:34.539Z,62.05
2019-04-07T00:25:04.084Z,61.20
2019-04-07T00:27:33.380Z,66.85
2019-04-07T00:30:02.308Z,63.33
2019-04-07T00:32:30.865Z,65.95
2019-04-07T00:34:59.969Z,66.47
2019-04-07T00:37:28.722Z,67.45
2019-04-07T00:39:57.782Z,69.05
2019-04-07T00:42:27.412Z,66.60
2019-04-07T00:44:56.264Z,67.92
2019-04-07T00:47:24.961Z,68.10
2019-04-07T00:49:53.877Z,65.22
2019-04-07T00:52:23.667Z,71.62
2019-04-07T00:54:52.304Z,67.95
2019-04-07T00:57:21.143Z,67.45
2019-04-07T00:59:49.708Z,67.00
2019-04-07T01:02:18.478Z,71.00
2019-04-07T01:04:47.272Z,73.67
2019-04-07T01:07:16.192Z,68.47
2019-04-07T01:09:45.333Z,72.42
2019-04-07T01:12:14.120Z,72.40
2019-04-07T01:14:43.376Z,69.40
2019-04-07T01:17:12.598Z,73.70
2019-04-07T01:19:41.603Z,69.53
2019-04-07T01:22:10.175Z,65.83
2019-04-07T01:24:39.491Z,67.00
2019-04-07T01:27:08.540Z,76.25
2019-04-07T01:29:37.443Z,67.60
2019-04-07T01:32:07.150Z,64.70
2019-04-07T01:34:36.271Z,69.00
2019-04-07T01:37:05.610Z,71.55
2019-04-07T01:39:34.976Z,74.42
2019-04-07T01:42:10.024Z,79.35
2019-04-07T01:44:48.024Z,75.22
2019-04-07T01:47:25.228Z,75.32
2019-04-07T01:50:01.855Z,74.37
2019-04-07T01:52:47.026Z,74.47
2019-04-07T01:55:44.294Z,75.45
2019-04-07T01:58:48.201Z,83.47
2019-04-07T02:01:31.397Z,77.27
2019-04-07T02:04:06.021Z,80.40
2019-04-07T02:07:10.719Z,77.10
2019-04-07T02:09:57.645Z,81.83
2019-04-07T02:12:48.983Z,78.42
2019-04-07T02:15:30.036Z,71.92
2019-04-07T02:18:07.116Z,83.52
2019-04-07T02:21:03.345Z,77.35
2019-04-07T02:24:00.966Z,73.33
2019-04-07T02:26:52.402Z,82.55
2019-04-07T02:29:39.971Z,83.47
2019-04-07T02:32:29.367Z,81.82
2019-04-07T02:35:26.781Z,76.75
2019-04-07T02:38:15.079Z,81.87
2019-04-07T02:40:51.474Z,87.22
2019-04-07T02:43:34.050Z,92.75
2019-04-07T02:46:23.673Z,82.08
2019-04-07T02:48:59.162Z,88.17
2019-04-07T02:51:46.193Z,84.52
2019-04-07T02:54:33.077Z,81.70
2019-04-07T02:57:22.104Z,83.03
2019-04-07T02:59:57.906Z,95.17
2019-04-07T03:02:33.464Z,85.75
2019-04-07T03:05:24.806Z,81.57
2019-04-07T03:08:05.929Z,86.57
2019-04-07T03:11:12.547Z,89.40
2019-04-07T03:14:07.818Z,85.62
2019-04-07T03:16:42.325Z,84.87
2019-04-07T03:19:19.335Z,83.42
2019-04-07T03:21:58.388Z,93.60
2019-04-07T03:24:45.151Z,87.72
2019-04-07T03:27:32.082Z,84.52
2019-04-07T03:30:13.993Z,84.42
2019-04-07T03:33:14.257Z,89.97
2019-04-07T03:36:06.818Z,81.87
2019-04-07T03:38:55.738Z,86.42
2019-04-07T03:41:33.226Z,83.78
2019-04-07T03:44:29.166Z,95.30
2019-04-07T03:47:23.782Z,95.42
2019-04-07T03:49:57.124Z,92.02
2019-04-07T03:52:35.445Z,85.87
2019-04-07T03:55:31.093Z,90.07
2019-04-07T03:58:14.026Z,85.32
2019-04-07T04:01:30.216Z,89.85
2019-04-07T04:04:15.751Z,87.90
2019-04-07T04:07:17.830Z,84.83
2019-04-07T04:09:41.294Z,89.60
2019-04-07T04:12:17.154Z,84.75
2019-04-07T04:15:01.950Z,88.12
2019-04-07T04:17:30.845Z,88.42
2019-04-07T04:19:59.506Z,91.85
2019-04-07T04:22:29.140Z,87.33
2019-04-07T04:24:58.463Z,86.20
2019-04-07T04:27:28.090Z,82.40
2019-04-07T04:29:56.892Z,89.32
2019-04-07T04:32:25.710Z,89.62
2019-04-07T04:34:54.714Z,92.47
2019-04-07T04:37:36.087Z,88.85
2019-04-07T04:39:54.427Z,89.55
2019-04-07T04:42:25.050Z,82.33
2019-04-07T04:44:54.368Z,84.72
2019-04-07T04:47:23.255Z,90.40
2019-04-07T04:49:52.794Z,88.70
2019-04-07T04:52:22.026Z,91.00
2019-04-07T04:54:51.725Z,87.12
2019-04-07T04:57:20.766Z,86.72
2019-04-07T04:59:49.453Z,86.22
2019-04-07T05:02:18.942Z,84.65
2019-04-07T05:04:47.850Z,89.03
2019-04-07T05:07:16.830Z,97.57
2019-04-07T05:09:50.330Z,94.47
2019-04-07T05:12:16.310Z,88.67
2019-04-07T05:14:45.555Z,93.62
2019-04-07T05:17:14.321Z,98.33
2019-04-07T05:19:42.975Z,92.42
2019-04-07T05:22:12.525Z,91.75
2019-04-07T05:24:41.280Z,92.88
2019-04-07T05:27:10.599Z,94.15
2019-04-07T05:29:40.243Z,92.20
2019-04-07T05:32:08.856Z,95.20
2019-04-07T05:34:38.196Z,89.35
2019-04-07T05:37:06.800Z,88.67
2019-04-07T05:39:36.150Z,90.45
2019-04-07T05:42:05.026Z,89.47
2019-04-07T05:44:34.388Z,85.67
2019-04-07T05:49:43.655Z,93.42
2019-04-07T05:52:12.783Z,91.30
2019-04-07T05:54:41.340Z,88.35
2019-04-07T05:57:10.548Z,86.12
2019-04-07T05:59:39.891Z,86.00
2019-04-07T06:02:09.919Z,89.65
2019-04-07T06:04:38.437Z,89.07
2019-04-07T06:07:08.033Z,79.87
2019-04-07T06:09:37.265Z,78.80
2019-04-07T06:12:07.959Z,81.85
2019-04-07T06:14:36.887Z,80.22
2019-04-07T06:17:05.469Z,76.37
2019-04-07T06:19:37.360Z,69.75
2019-04-07T06:22:05.465Z,70.95
2019-04-07T06:24:35.140Z,64.60
2019-04-07T06:27:04.383Z,71.40
2019-04-07T06:29:33.399Z,62.15
2019-04-07T06:32:04.569Z,66.25
2019-04-07T06:34:32.652Z,64.82
2019-04-07T06:37:01.203Z,67.32
2019-04-07T06:39:31.953Z,67.35
2019-04-07T06:42:01.391Z,72.40
2019-04-07T06:44:30.826Z,68.95
2019-04-07T06:47:25.005Z,63.20
2019-04-07T06:50:23.302Z,60.23
2019-04-07T06:52:58.958Z,63.48
2019-04-07T06:55:46.137Z,61.70
2019-04-07T06:58:41.739Z,63.63
2019-04-07T07:01:29.651Z,54.25
2019-04-07T07:04:16.788Z,57.35
2019-04-07T07:07:00.640Z,58.55
2019-04-07T07:09:45.889Z,70.57
2019-04-07T07:12:39.114Z,60.70
2019-04-07T07:15:18.412Z,65.22
2019-04-07T07:17:59.285Z,65.05
2019-04-07T07:21:03.728Z,64.30
2019-04-07T07:23:35.445Z,61.68
2019-04-07T07:26:04.278Z,61.70
2019-04-07T07:28:33.733Z,57.38
2019-04-07T07:31:04.345Z,58.50
2019-04-07T07:33:33.443Z,59.30
2019-04-07T07:36:02.484Z,49.20
2019-04-07T07:38:32.731Z,51.37
2019-04-07T07:41:03.584Z,49.83
2019-04-07T07:43:32.419Z,47.38
2019-04-07T07:46:00.964Z,44.63
2019-04-07T07:48:30.258Z,44.40
2019-04-07T07:50:59.079Z,38.75
2019-04-07T07:53:28.593Z,41.85
2019-04-07T07:55:57.654Z,43.40
2019-04-07T07:58:30.762Z,37.63
2019-04-07T08:00:59.563Z,34.00
2019-04-07T08:03:27.307Z,37.95
2019-04-07T08:05:56.541Z,32.17
2019-04-07T08:08:25.425Z,39.95
2019-04-07T08:10:59.086Z,41.25
2019-04-07T08:13:24.836Z,36.73
2019-04-07T08:15:56.596Z,32.25
2019-04-07T08:18:23.974Z,34.18
2019-04-07T08:20:53.297Z,31.42
2019-04-07T08:23:22.062Z,31.93
2019-04-07T08:25:52.898Z,28.80
2019-04-07T08:28:21.668Z,32.83
2019-04-07T08:30:50.343Z,29.32
2019-04-07T08:33:20.131Z,26.90
2019-04-07T08:35:49.107Z,29.48
2019-04-07T08:38:19.979Z,30.23
2019-04-07T08:40:49.683Z,26.45
2019-04-07T08:43:21.359Z,25.02
2019-04-07T08:45:48.973Z,24.70
2019-04-07T08:48:19.405Z,27.05
2019-04-07T08:50:48.593Z,24.65
2019-04-07T08:53:17.332Z,21.40
2019-04-07T08:55:48.609Z,23.27
2019-04-07T08:58:24.959Z,21.33
2019-04-07T09:00:51.615Z,20.43
2019-04-07T09:03:19.730Z,22.82
2019-04-07T09:05:48.284Z,19.35
2019-04-07T09:08:17.249Z,21.35
2019-04-07T09:10:54.945Z,17.62
2019-04-07T09:13:24.082Z,19.60
2019-04-07T09:16:19.940Z,17.07
2019-04-07T09:19:06.043Z,18.82
2019-04-07T09:21:47.550Z,20.45
2019-04-07T09:24:31.399Z,16.23
2019-04-07T09:27:14.697Z,17.67
2019-04-07T09:29:58.245Z,16.93
2019-04-07T09:32:41.604Z,15.20
2019-04-07T09:35:24.047Z,13.25
2019-04-07T09:38:10.872Z,14.58
2019-04-07T09:41:17.239Z,14.35
2019-04-07T09:43:55.302Z,14.78
2019-04-07T09:46:44.775Z,15.00
2019-04-07T09:49:31.028Z,15.03
2019-04-07T09:52:18.581Z,12.98
2019-04-07T09:55:24.350Z,12.30
2019-04-07T09:58:09.222Z,11.22
2019-04-07T10:00:57.358Z,12.45
2019-04-07T10:03:51.839Z,14.13
2019-04-07T10:06:39.705Z,14.45
2019-04-07T10:09:20.330Z,13.13
2019-04-07T10:12:11.764Z,11.50
2019-04-07T10:15:03.121Z,11.03
2019-04-07T10:17:43.831Z,11.88
2019-04-07T10:20:28.590Z,12.82
2019-04-07T10:23:16.930Z,13.05
2019-04-07T10:25:56.152Z,12.18
2019-04-07T10:28:41.644Z,11.97
2019-04-07T10:31:45.269Z,13.53
2019-04-07T10:34:23.722Z,12.50
2019-04-07T10:37:10.203Z,13.38
2019-04-07T10:39:56.016Z,13.58
2019-04-07T10:42:42.161Z,13.88
2019-04-07T10:45:30.512Z,12.55
2019-04-07T10:48:34.296Z,11.53
2019-04-07T10:51:23.068Z,13.18
2019-04-07T10:54:01.572Z,13.55
2019-04-07T10:56:49.757Z,15.48
2019-04-07T10:59:27.952Z,11.48
2019-04-07T11:02:15.137Z,16.77
2019-04-07T11:05:03.338Z,12.88
2019-04-07T11:07:51.519Z,15.55
2019-04-07T11:10:34.550Z,14.13
2019-04-07T11:13:13.525Z,15.98
2019-04-07T11:16:00.319Z,16.40
2019-04-07T11:18:46.887Z,19.00
2019-04-07T11:21:53.505Z,17.90
2019-04-07T11:24:50.586Z,19.80
2019-04-07T11:27:56.616Z,17.20
2019-04-07T11:30:52.090Z,19.42
2019-04-07T11:33:41.377Z,19.20
2019-04-07T11:36:18.042Z,18.92
2019-04-07T11:39:20.536Z,16.90
2019-04-07T11:42:08.862Z,17.32
2019-04-07T11:44:51.482Z,22.17
2019-04-07T11:47:28.626Z,19.45
2019-04-07T11:50:15.585Z,19.15
2019-04-07T11:53:03.964Z,26.50
2019-04-07T11:55:51.120Z,16.73
2019-04-07T11:58:39.795Z,19.95
2019-04-07T12:01:46.074Z,20.23
2019-04-07T12:04:36.682Z,22.67
2019-04-07T12:07:25.035Z,21.20
2019-04-07T12:10:12.553Z,17.67
2019-04-07T12:12:53.857Z,20.90
2019-04-07T12:15:42.954Z,19.82
2019-04-07T12:18:30.864Z,15.63
2019-04-07T12:21:24.082Z,18.80
2019-04-07T12:24:10.585Z,15.38
2019-04-07T12:26:47.392Z,18.73
2019-04-07T12:29:35.104Z,17.52
2019-04-07T12:32:26.689Z,17.20
2019-04-07T12:35:23.672Z,18.57
2019-04-07T12:38:01.531Z,18.60
2019-04-07T12:40:38.910Z,18.20
2019-04-07T12:43:21.824Z,17.75
2019-04-07T12:46:07.159Z,19.03
2019-04-07T12:48:46.974Z,18.15
2019-04-07T12:51:41.443Z,18.82
2019-04-07T12:57:17.688Z,20.90
2019-04-07T13:00:06.081Z,19.00
2019-04-07T13:02:53.226Z,18.90
2019-04-07T13:05:49.865Z,19.05
2019-04-07T13:08:28.618Z,15.35
2019-04-07T13:11:11.211Z,20.10
2019-04-07T13:13:49.509Z,16.55
2019-04-07T13:16:34.850Z,20.37
2019-04-07T13:19:16.378Z,18.80
2019-04-07T13:21:57.273Z,16.75
2019-04-07T13:24:39.365Z,19.48
2019-04-07T13:27:28.019Z,20.02
2019-04-07T13:30:03.240Z,20.15
2019-04-07T13:32:57.527Z,17.35
2019-04-07T13:35:34.183Z,18.05
2019-04-07T13:38:22.018Z,20.32
2019-04-07T13:41:01.834Z,22.48
2019-04-07T13:43:44.277Z,18.55
2019-04-07T13:46:35.684Z,16.90
2019-04-07T13:49:15.858Z,18.85
2019-04-07T13:52:02.458Z,19.50
2019-04-07T13:55:04.525Z,21.33
2019-04-07T13:57:50.396Z,20.10
2019-04-07T14:00:48.291Z,19.00
2019-04-07T14:03:45.276Z,15.18
2019-04-07T14:06:23.799Z,17.50
2019-04-07T14:09:06.768Z,18.85
2019-04-07T14:11:58.250Z,18.23
2019-04-07T14:14:36.217Z,16.15
2019-04-07T14:17:27.552Z,15.90
2019-04-07T14:20:15.065Z,21.07
2019-04-07T14:22:58.693Z,17.10
2019-04-07T14:25:34.616Z,16.42
2019-04-07T14:28:13.002Z,21.07
2019-04-07T14:31:09.364Z,14.35
2019-04-07T14:34:03.554Z,14.87
2019-04-07T14:36:58.946Z,17.27
2019-04-07T14:39:53.432Z,16.60
2019-04-07T14:42:36.149Z,21.42
2019-04-07T14:45:31.887Z,17.00
2019-04-07T14:48:29.353Z,16.05
2019-04-07T14:51:08.689Z,18.20
2019-04-07T14:53:51.412Z,17.25
2019-04-07T14:56:38.605Z,18.98
2019-04-07T14:59:28.438Z,18.30
2019-04-07T15:02:00.545Z,16.15
2019-04-07T15:04:51.006Z,18.82
2019-04-07T15:07:39.426Z,16.75
2019-04-07T15:10:19.919Z,15.90
2019-04-07T15:12:52.430Z,13.30
2019-04-07T15:15:21.455Z,17.67
2019-04-07T15:17:50.143Z,15.68
2019-04-07T15:20:19.599Z,16.55
2019-04-07T15:22:49.411Z,17.60
2019-04-07T15:25:18.441Z,18.73
2019-04-07T15:27:47.734Z,36.38
2019-04-07T15:30:16.972Z,26.82
2019-04-07T15:32:45.921Z,48.05
2019-04-07T15:35:15.495Z,17.37
2019-04-07T15:37:45.067Z,17.70
2019-04-07T15:40:14.060Z,16.95
2019-04-07T15:42:44.422Z,19.07
2019-04-07T15:45:13.444Z,17.48
2019-04-07T15:47:42.498Z,20.05
2019-04-07T15:50:11.723Z,16.30
2019-04-07T15:52:43.744Z,16.57
2019-04-07T15:55:11.846Z,16.82
2019-04-07T15:57:40.743Z,16.30
2019-04-07T16:00:10.079Z,16.75
2019-04-07T16:02:42.181Z,22.22
2019-04-07T16:05:10.507Z,20.52
2019-04-07T16:07:39.248Z,26.02
2019-04-07T16:10:08.505Z,125.20
2019-04-07T16:12:44.879Z,18.52
2019-04-07T16:15:08.010Z,18.62
2019-04-07T16:17:37.272Z,16.15
2019-04-07T16:20:18.821Z,18.02
2019-04-07T16:22:38.013Z,20.62
2019-04-07T16:25:08.762Z,19.57
2019-04-07T16:27:39.387Z,16.65
2019-04-07T16:30:08.689Z,17.40
2019-04-07T16:32:39.083Z,20.23
2019-04-07T16:35:12.933Z,47.85
2019-04-07T16:37:39.392Z,34.70
2019-04-07T16:40:11.467Z,283.07
2019-04-07T16:42:40.006Z,73.45
2019-04-07T16:45:11.921Z,234.67
2019-04-07T16:47:39.395Z,163.72
2019-04-07T16:50:08.729Z,27.00
2019-04-07T16:52:37.487Z,47.20
2019-04-07T16:55:28.258Z,46.42
2019-04-07T16:58:00.354Z,131.93
2019-04-07T17:00:28.294Z,23.25
2019-04-07T17:02:56.926Z,24.05
2019-04-07T17:05:25.749Z,24.10
2019-04-07T17:07:55.982Z,27.95
2019-04-07T17:10:28.739Z,26.77
2019-04-07T17:12:56.616Z,23.05
2019-04-07T17:15:26.256Z,52.73
2019-04-07T17:17:54.895Z,24.87
2019-04-07T17:20:27.211Z,25.45
2019-04-07T17:22:54.464Z,27.00
2019-04-07T17:25:23.232Z,25.37
2019-04-07T17:27:51.983Z,26.45
2019-04-07T17:30:24.387Z,23.22
2019-04-07T17:32:52.465Z,27.17
2019-04-07T17:35:21.982Z,30.43
2019-04-07T17:37:51.219Z,27.87
2019-04-07T17:40:22.677Z,51.15
2019-04-07T17:42:53.087Z,28.45
2019-04-07T17:45:56.782Z,26.82
2019-04-07T17:48:50.386Z,33.40
2019-04-07T17:51:42.214Z,27.42
2019-04-07T17:54:29.665Z,27.27
2019-04-07T17:57:23.737Z,42.15
2019-04-07T18:00:07.944Z,30.72
2019-04-07T18:02:57.811Z,27.67
2019-04-07T18:05:43.191Z,35.90
2019-04-07T18:08:29.977Z,26.70
2019-04-07T18:11:37.744Z,34.88
2019-04-07T18:14:28.356Z,34.35
2019-04-07T18:17:06.681Z,30.37
2019-04-07T18:19:45.433Z,30.92
2019-04-07T18:22:33.651Z,34.48
2019-04-07T18:25:21.649Z,30.70
2019-04-07T18:28:05.547Z,30.72
2019-04-07T18:30:52.653Z,31.48
2019-04-07T18:33:37.926Z,30.37
2019-04-07T18:36:25.727Z,33.42
2019-04-07T18:39:24.108Z,34.80
2019-04-07T18:42:21.961Z,33.13
2019-04-07T18:45:12.250Z,35.65
2019-04-07T18:47:48.262Z,40.35
2019-04-07T18:50:46.583Z,53.87
2019-04-07T18:53:33.796Z,35.95
2019-04-07T18:56:16.101Z,37.23
2019-04-07T18:59:10.002Z,48.20
2019-04-07T19:02:11.833Z,35.63
2019-04-07T19:04:52.190Z,32.90
2019-04-07T19:07:45.897Z,32.98
2019-04-07T19:10:33.468Z,32.00
2019-04-07T19:13:15.878Z,40.52
2019-04-07T19:15:55.478Z,50.45
2019-04-07T19:18:34.752Z,29.87
2019-04-07T19:21:37.630Z,35.35
2019-04-07T19:24:25.001Z,32.83
2019-04-07T19:27:17.699Z,33.23
2019-04-07T19:30:02.542Z,34.48
2019-04-07T19:32:52.650Z,34.25
2019-04-07T19:35:49.024Z,35.00
2019-04-07T19:38:27.366Z,37.30
2019-04-07T19:41:16.723Z,36.65
2019-04-07T19:43:54.359Z,35.52
2019-04-07T19:46:46.575Z,35.85
2019-04-07T19:49:41.095Z,31.15
2019-04-07T19:52:33.864Z,32.53
2019-04-07T19:55:22.763Z,31.52
2019-04-07T19:58:00.631Z,34.23
2019-04-07T20:01:01.748Z,33.85
2019-04-07T20:03:53.919Z,35.83
2019-04-07T20:06:40.018Z,34.78
2019-04-07T20:09:27.825Z,35.13
2019-04-07T20:12:08.536Z,34.05
2019-04-07T20:15:03.048Z,32.60
2019-04-07T20:17:44.068Z,34.38
2019-04-07T20:20:31.236Z,33.80
2019-04-07T20:23:22.872Z,39.78
2019-04-07T20:26:00.113Z,31.52
2019-04-07T20:28:35.852Z,37.23
2019-04-07T20:31:24.158Z,36.70
2019-04-07T20:34:02.178Z,32.60
2019-04-07T20:36:48.425Z,41.68
2019-04-07T20:39:37.262Z,40.45
2019-04-07T20:42:19.309Z,30.65
2019-04-07T20:45:15.348Z,36.60
2019-04-07T20:48:13.585Z,37.55
2019-04-07T20:50:50.912Z,34.83
2019-04-07T20:53:29.694Z,34.92
2019-04-07T20:56:13.026Z,37.50
2019-04-07T21:02:00.788Z,33.15
2019-04-07T21:04:39.784Z,34.30
2019-04-07T21:07:19.389Z,33.67
2019-04-07T21:09:56.646Z,34.63
2019-04-07T21:12:37.053Z,36.53
2019-04-07T21:15:29.614Z,36.45
2019-04-07T21:18:23.883Z,34.00
2019-04-07T21:21:15.148Z,36.28
2019-04-07T21:23:55.261Z,33.00
2019-04-07T21:26:30.087Z,35.78
2019-04-07T21:29:11.285Z,34.15
2019-04-07T21:31:47.680Z,31.70
2019-04-07T21:34:36.435Z,33.10
2019-04-07T21:37:33.781Z,36.98
2019-04-07T21:40:32.341Z,30.75
2019-04-07T21:43:17.970Z,36.80
2019-04-07T21:46:04.914Z,33.50
2019-04-07T21:48:45.924Z,38.78
2019-04-07T21:51:26.882Z,31.85
2019-04-07T21:54:21.531Z,32.78
2019-04-07T21:57:14.026Z,33.30
2019-04-07T22:00:04.989Z,39.53
2019-04-07T22:03:05.603Z,34.43
2019-04-07T22:05:50.991Z,36.00
2019-04-07T22:08:25.535Z,42.93
2019-04-07T22:10:55.372Z,45.85
2019-04-07T22:13:24.119Z,38.75
2019-04-07T22:15:58.585Z,39.03
2019-04-07T22:18:23.665Z,35.15
2019-04-07T22:20:54.769Z,38.10
2019-04-07T22:23:23.034Z,38.08
2019-04-07T22:25:52.364Z,36.95
2019-04-07T22:28:21.084Z,39.88
2019-04-07T22:30:50.951Z,38.33
2019-04-07T22:33:23.028Z,39.70
2019-04-07T22:35:51.067Z,36.63
2019-04-07T22:38:22.928Z,41.73
2019-04-07T22:40:50.462Z,35.48
2019-04-07T22:43:20.084Z,36.05
2019-04-07T22:45:59.004Z,38.02
2019-04-07T22:48:23.563Z,36.50
2019-04-07T22:50:51.755Z,39.33
2019-04-07T22:53:22.589Z,40.55
2019-04-07T22:55:51.228Z,41.20
2019-04-07T22:58:20.175Z,38.75
2019-04-07T23:00:48.983Z,42.80
2019-04-07T23:03:17.670Z,36.30
2019-04-07T23:05:47.051Z,38.75
2019-04-07T23:08:15.596Z,36.35
2019-04-07T23:10:44.316Z,38.23
2019-04-07T23:13:13.296Z,41.13
2019-04-07T23:15:45.487Z,38.35
2019-04-07T23:18:12.599Z,39.80
2019-04-07T23:20:41.722Z,42.13
2019-04-07T23:23:10.994Z,41.70
2019-04-07T23:25:39.504Z,43.02
2019-04-07T23:28:08.243Z,38.90
2019-04-07T23:30:36.950Z,40.35
2019-04-07T23:33:06.242Z,38.48
2019-04-07T23:35:35.117Z,38.33
2019-04-07T23:38:03.765Z,42.90
2019-04-07T23:40:32.689Z,43.20
2019-04-07T23:43:01.316Z,39.13
2019-04-07T23:45:29.849Z,40.85
2019-04-07T23:47:58.773Z,42.03
2019-04-07T23:50:27.527Z,43.30
2019-04-07T23:53:00.266Z,40.03
2019-04-07T23:55:29.499Z,38.92
2019-04-07T23:57:58.035Z,42.15
